createdAt,value
2018-07-07T00:00:48.152Z,0
2018-07-07T00:01:48.880Z,0
2018-07-07T00:02:49.591Z,0
2018-07-07T00:03:50.305Z,0
2018-07-07T00:04:51.032Z,0
2018-07-07T00:05:51.745Z,0
2018-07-07T00:06:52.460Z,0
2018-07-07T00:07:53.175Z,0
2018-07-07T00:08:53.901Z,0
2018-07-07T00:09:54.613Z,0
2018-07-07T00:10:55.326Z,0
2018-07-07T00:11:56.040Z,0
2018-07-07T00:12:56.766Z,0
2018-07-07T00:13:57.481Z,0
2018-07-07T00:14:58.193Z,0
2018-07-07T00:15:58.906Z,0
2018-07-07T00:16:59.619Z,0
2018-07-07T00:18:00.332Z,0
2018-07-07T00:19:01.045Z,0
2018-07-07T00:20:01.759Z,0
2018-07-07T00:21:02.472Z,0
2018-07-07T00:22:03.186Z,0
2018-07-07T00:23:03.898Z,0
2018-07-07T00:24:04.611Z,0
2018-07-07T00:25:05.329Z,0
2018-07-07T00:26:06.038Z,0
2018-07-07T00:27:06.775Z,0
2018-07-07T00:28:07.494Z,0
2018-07-07T00:29:08.226Z,0
2018-07-07T00:30:08.937Z,0
2018-07-07T00:31:09.647Z,0
2018-07-07T00:32:10.362Z,0
2018-07-07T00:33:11.075Z,0
2018-07-07T00:34:11.802Z,0
2018-07-07T00:35:12.515Z,0
2018-07-07T00:36:13.229Z,0
2018-07-07T00:37:13.958Z,0
2018-07-07T00:38:14.671Z,0
2018-07-07T00:39:15.398Z,0
2018-07-07T00:40:16.112Z,0
2018-07-07T00:41:16.826Z,0
2018-07-07T00:42:17.537Z,0
2018-07-07T00:43:18.249Z,0
2018-07-07T00:44:18.962Z,0
2018-07-07T00:45:19.674Z,0
2018-07-07T00:46:20.386Z,0
2018-07-07T00:47:21.113Z,0
2018-07-07T00:48:21.825Z,0
2018-07-07T00:49:22.540Z,0
2018-07-07T00:50:23.266Z,0
2018-07-07T00:51:23.978Z,0
2018-07-07T00:52:24.706Z,0
2018-07-07T00:53:25.418Z,0
2018-07-07T00:54:26.183Z,0
2018-07-07T00:55:26.846Z,0
2018-07-07T00:56:27.560Z,0
2018-07-07T00:57:28.285Z,0
2018-07-07T00:58:29.008Z,0
2018-07-07T00:59:29.735Z,0
2018-07-07T01:00:30.461Z,0
2018-07-07T01:01:31.173Z,0
2018-07-07T01:02:31.885Z,0
2018-07-07T01:03:32.597Z,0
2018-07-07T01:04:33.310Z,0
2018-07-07T01:05:34.036Z,0
2018-07-07T01:06:34.745Z,0
2018-07-07T01:07:35.456Z,0
2018-07-07T01:08:36.184Z,0
2018-07-07T01:09:36.897Z,0
2018-07-07T01:10:37.609Z,0
2018-07-07T01:11:38.334Z,0
2018-07-07T01:12:39.047Z,0
2018-07-07T01:13:39.775Z,0
2018-07-07T01:14:40.487Z,0
2018-07-07T01:15:41.213Z,0
2018-07-07T01:16:41.927Z,0
2018-07-07T01:17:42.640Z,0
2018-07-07T01:18:43.353Z,0
2018-07-07T01:19:44.066Z,0
2018-07-07T01:20:44.800Z,0
2018-07-07T01:21:45.504Z,0
2018-07-07T01:22:46.229Z,0
2018-07-07T01:23:46.955Z,0
2018-07-07T01:24:47.682Z,0
2018-07-07T01:25:48.394Z,0
2018-07-07T01:26:49.120Z,0
2018-07-07T01:27:49.833Z,0
2018-07-07T01:28:50.546Z,0
2018-07-07T01:29:51.257Z,0
2018-07-07T01:30:51.984Z,0
2018-07-07T01:31:52.696Z,0
2018-07-07T01:32:53.411Z,0
2018-07-07T01:33:54.125Z,0
2018-07-07T01:34:54.838Z,0
2018-07-07T01:35:55.550Z,0
2018-07-07T01:36:56.264Z,0
2018-07-07T01:37:56.978Z,0
2018-07-07T01:38:57.704Z,0
2018-07-07T01:39:58.416Z,0
2018-07-07T01:40:59.128Z,0
2018-07-07T01:41:59.840Z,0
2018-07-07T01:43:00.552Z,0
2018-07-07T01:44:01.275Z,0
2018-07-07T01:45:01.988Z,0
2018-07-07T01:46:02.719Z,0
2018-07-07T01:47:03.428Z,0
2018-07-07T01:48:04.141Z,0
2018-07-07T01:49:04.855Z,0
2018-07-07T01:50:05.566Z,0
2018-07-07T01:51:06.282Z,0
2018-07-07T01:52:07.007Z,0
2018-07-07T01:53:07.731Z,0
2018-07-07T01:54:08.442Z,0
2018-07-07T01:55:09.155Z,0
2018-07-07T01:56:09.879Z,0
2018-07-07T01:57:10.591Z,0
2018-07-07T01:58:11.303Z,0
2018-07-07T01:59:12.018Z,0
2018-07-07T02:00:12.729Z,0
2018-07-07T02:01:13.442Z,0
2018-07-07T02:02:14.156Z,0
2018-07-07T02:03:14.867Z,0
2018-07-07T02:04:15.595Z,0
2018-07-07T02:05:16.322Z,0
2018-07-07T02:06:17.034Z,0
2018-07-07T02:07:17.748Z,0
2018-07-07T02:08:18.473Z,0
2018-07-07T02:09:19.186Z,0
2018-07-07T02:10:19.903Z,0
2018-07-07T02:11:20.622Z,0
2018-07-07T02:12:21.350Z,0
2018-07-07T02:13:22.065Z,0
2018-07-07T02:14:22.784Z,0
2018-07-07T02:15:23.505Z,0
2018-07-07T02:16:24.216Z,0
2018-07-07T02:17:24.928Z,0
2018-07-07T02:18:25.639Z,0
2018-07-07T02:19:26.355Z,0
2018-07-07T02:20:27.064Z,0
2018-07-07T02:21:27.776Z,0
2018-07-07T02:22:28.490Z,0
2018-07-07T02:23:29.216Z,0
2018-07-07T02:24:29.929Z,0
2018-07-07T02:25:30.640Z,0
2018-07-07T02:26:31.352Z,0
2018-07-07T02:27:32.066Z,0
2018-07-07T02:28:32.782Z,0
2018-07-07T02:29:33.504Z,0
2018-07-07T02:30:34.218Z,0
2018-07-07T02:31:34.934Z,0
2018-07-07T02:32:35.657Z,0
2018-07-07T02:33:36.383Z,0
2018-07-07T02:34:37.108Z,0
2018-07-07T02:35:37.837Z,0
2018-07-07T02:36:38.550Z,0
2018-07-07T02:37:39.262Z,0
2018-07-07T02:38:39.976Z,0
2018-07-07T02:39:40.703Z,4
2018-07-07T02:40:41.413Z,4
2018-07-07T02:41:42.130Z,4
2018-07-07T02:42:42.842Z,4
2018-07-07T02:43:43.555Z,0
2018-07-07T02:44:44.268Z,4
2018-07-07T02:45:44.994Z,4
2018-07-07T02:46:45.711Z,4
2018-07-07T02:47:46.418Z,4
2018-07-07T02:48:47.131Z,4
2018-07-07T02:49:47.843Z,8
2018-07-07T02:50:48.557Z,4
2018-07-07T02:51:49.271Z,8
2018-07-07T02:52:49.985Z,8
2018-07-07T02:53:50.712Z,12
2018-07-07T02:54:51.445Z,12
2018-07-07T02:55:52.157Z,12
2018-07-07T02:56:52.884Z,16
2018-07-07T02:57:53.597Z,16
2018-07-07T02:58:54.312Z,20
2018-07-07T02:59:55.025Z,24
2018-07-07T03:00:55.738Z,24
2018-07-07T03:01:56.452Z,28
2018-07-07T03:02:57.166Z,32
2018-07-07T03:03:57.900Z,36
2018-07-07T03:04:58.610Z,44
2018-07-07T03:05:59.327Z,48
2018-07-07T03:07:00.040Z,52
2018-07-07T03:08:00.767Z,56
2018-07-07T03:09:01.481Z,60
2018-07-07T03:10:02.193Z,68
2018-07-07T03:11:02.909Z,72
2018-07-07T03:12:03.633Z,80
2018-07-07T03:13:04.352Z,88
2018-07-07T03:14:05.076Z,96
2018-07-07T03:15:05.791Z,104
2018-07-07T03:16:06.519Z,108
2018-07-07T03:17:07.249Z,120
2018-07-07T03:18:07.965Z,128
2018-07-07T03:19:08.682Z,136
2018-07-07T03:20:09.411Z,152
2018-07-07T03:21:10.126Z,164
2018-07-07T03:22:10.843Z,176
2018-07-07T03:23:11.555Z,188
2018-07-07T03:24:12.288Z,200
2018-07-07T03:25:13.003Z,212
2018-07-07T03:26:13.719Z,224
2018-07-07T03:27:14.435Z,232
2018-07-07T03:28:15.148Z,244
2018-07-07T03:29:15.865Z,260
2018-07-07T03:30:16.593Z,276
2018-07-07T03:31:17.307Z,288
2018-07-07T03:32:18.023Z,304
2018-07-07T03:33:18.740Z,320
2018-07-07T03:34:19.456Z,332
2018-07-07T03:35:20.175Z,348
2018-07-07T03:36:20.891Z,364
2018-07-07T03:37:21.608Z,380
2018-07-07T03:38:22.323Z,400
2018-07-07T03:39:23.043Z,420
2018-07-07T03:40:23.764Z,432
2018-07-07T03:41:24.470Z,452
2018-07-07T03:42:25.187Z,460
2018-07-07T03:43:25.905Z,476
2018-07-07T03:44:26.620Z,492
2018-07-07T03:45:27.335Z,504
2018-07-07T03:46:28.053Z,524
2018-07-07T03:47:28.771Z,536
2018-07-07T03:48:29.501Z,556
2018-07-07T03:49:30.216Z,568
2018-07-07T03:50:30.945Z,588
2018-07-07T03:51:31.661Z,604
2018-07-07T03:52:32.381Z,620
2018-07-07T03:53:33.096Z,644
2018-07-07T03:54:33.824Z,664
2018-07-07T03:55:34.555Z,696
2018-07-07T03:56:35.270Z,728
2018-07-07T03:57:35.988Z,768
2018-07-07T03:58:36.706Z,808
2018-07-07T03:59:37.435Z,844
2018-07-07T04:00:38.152Z,876
2018-07-07T04:01:38.880Z,912
2018-07-07T04:02:39.599Z,944
2018-07-07T04:03:40.315Z,972
2018-07-07T04:04:41.034Z,996
2018-07-07T04:05:41.746Z,1024
2018-07-07T04:06:42.463Z,1048
2018-07-07T04:07:43.182Z,1068
2018-07-07T04:08:43.899Z,1092
2018-07-07T04:09:44.632Z,1116
2018-07-07T04:10:45.348Z,1144
2018-07-07T04:11:46.077Z,1168
2018-07-07T04:12:46.794Z,1192
2018-07-07T04:13:47.528Z,1212
2018-07-07T04:14:48.242Z,1232
2018-07-07T04:15:48.957Z,1256
2018-07-07T04:16:49.688Z,1276
2018-07-07T04:17:50.405Z,1296
2018-07-07T04:18:51.138Z,1328
2018-07-07T04:19:51.859Z,1348
2018-07-07T04:20:52.586Z,1376
2018-07-07T04:21:53.303Z,1400
2018-07-07T04:22:54.020Z,1416
2018-07-07T04:23:54.740Z,1440
2018-07-07T04:24:55.456Z,1464
2018-07-07T04:25:56.176Z,1492
2018-07-07T04:26:56.892Z,1520
2018-07-07T04:27:57.610Z,1548
2018-07-07T04:28:58.332Z,1576
2018-07-07T04:29:59.045Z,1596
2018-07-07T04:30:59.763Z,1612
2018-07-07T04:32:00.479Z,1632
2018-07-07T04:33:01.198Z,1660
2018-07-07T04:34:01.917Z,1680
2018-07-07T04:35:02.635Z,1708
2018-07-07T04:36:03.354Z,1732
2018-07-07T04:37:04.069Z,1756
2018-07-07T04:38:04.787Z,1780
2018-07-07T04:39:05.506Z,1804
2018-07-07T04:40:06.220Z,1824
2018-07-07T04:41:06.938Z,1844
2018-07-07T04:42:07.657Z,1868
2018-07-07T04:43:08.388Z,1896
2018-07-07T04:44:09.105Z,1928
2018-07-07T04:45:09.822Z,1964
2018-07-07T04:46:10.539Z,2000
2018-07-07T04:47:11.256Z,2040
2018-07-07T04:48:11.971Z,2076
2018-07-07T04:49:12.689Z,2092
2018-07-07T04:50:13.408Z,2084
2018-07-07T04:51:14.128Z,2088
2018-07-07T04:52:14.843Z,2104
2018-07-07T04:53:15.562Z,2120
2018-07-07T04:54:16.289Z,2140
2018-07-07T04:55:17.007Z,2156
2018-07-07T04:56:17.722Z,2176
2018-07-07T04:57:18.454Z,2192
2018-07-07T04:58:19.171Z,2220
2018-07-07T04:59:19.888Z,2240
2018-07-07T05:00:20.606Z,2264
2018-07-07T05:01:21.324Z,2280
2018-07-07T05:02:22.041Z,2300
2018-07-07T05:03:22.760Z,2324
2018-07-07T05:04:23.488Z,2340
2018-07-07T05:05:24.196Z,2364
2018-07-07T05:06:24.926Z,2380
2018-07-07T05:07:25.645Z,2392
2018-07-07T05:08:26.364Z,2408
2018-07-07T05:09:27.081Z,2428
2018-07-07T05:10:27.798Z,2452
2018-07-07T05:11:28.517Z,2472
2018-07-07T05:12:29.236Z,2492
2018-07-07T05:13:29.957Z,2508
2018-07-07T05:14:30.672Z,2516
2018-07-07T05:15:31.433Z,2536
2018-07-07T05:16:32.121Z,2552
2018-07-07T05:17:32.838Z,2568
2018-07-07T05:18:33.570Z,2588
2018-07-07T05:19:34.303Z,2604
2018-07-07T05:20:35.020Z,2628
2018-07-07T05:21:35.738Z,2648
2018-07-07T05:22:36.467Z,2664
2018-07-07T05:23:37.186Z,2680
2018-07-07T05:24:37.904Z,2680
2018-07-07T05:25:38.623Z,2692
2018-07-07T05:26:39.340Z,2704
2018-07-07T05:27:40.059Z,2720
2018-07-07T05:28:40.777Z,2740
2018-07-07T05:29:41.494Z,2756
2018-07-07T05:30:42.216Z,2772
2018-07-07T05:31:42.955Z,2780
2018-07-07T05:32:43.656Z,2796
2018-07-07T05:33:44.375Z,2812
2018-07-07T05:34:45.095Z,2832
2018-07-07T05:35:45.818Z,2852
2018-07-07T05:36:46.535Z,2868
2018-07-07T05:37:47.257Z,2892
2018-07-07T05:38:47.977Z,2908
2018-07-07T05:39:48.695Z,2928
2018-07-07T05:40:49.426Z,2944
2018-07-07T05:41:50.146Z,2968
2018-07-07T05:42:50.867Z,2988
2018-07-07T05:43:51.588Z,3000
2018-07-07T05:44:52.309Z,3004
2018-07-07T05:45:53.029Z,3004
2018-07-07T05:46:53.751Z,3000
2018-07-07T05:47:54.485Z,3004
2018-07-07T05:48:55.204Z,3016
2018-07-07T05:49:55.931Z,3028
2018-07-07T05:50:56.654Z,3052
2018-07-07T05:51:57.375Z,3072
2018-07-07T05:52:58.095Z,3084
2018-07-07T05:53:58.828Z,3112
2018-07-07T05:54:59.551Z,3144
2018-07-07T05:56:00.285Z,3180
2018-07-07T05:57:01.006Z,3216
2018-07-07T05:58:01.723Z,3244
2018-07-07T05:59:02.443Z,3272
2018-07-07T06:00:03.176Z,3292
2018-07-07T06:01:03.909Z,3304
2018-07-07T06:02:04.627Z,3316
2018-07-07T06:03:05.347Z,3332
2018-07-07T06:04:06.067Z,3348
2018-07-07T06:05:06.786Z,3376
2018-07-07T06:06:07.505Z,3396
2018-07-07T06:07:08.228Z,3444
2018-07-07T06:08:08.949Z,3496
2018-07-07T06:09:09.670Z,3536
2018-07-07T06:10:10.390Z,3564
2018-07-07T06:11:11.122Z,3576
2018-07-07T06:12:11.855Z,3596
2018-07-07T06:13:12.586Z,3596
2018-07-07T06:14:13.310Z,3616
2018-07-07T06:15:14.029Z,3636
2018-07-07T06:16:14.750Z,3680
2018-07-07T06:17:15.469Z,3716
2018-07-07T06:18:16.251Z,3712
2018-07-07T06:19:16.923Z,3732
2018-07-07T06:20:17.644Z,3776
2018-07-07T06:21:18.365Z,3808
2018-07-07T06:22:19.098Z,3856
2018-07-07T06:23:19.819Z,3896
2018-07-07T06:24:20.554Z,3940
2018-07-07T06:25:21.274Z,3988
2018-07-07T06:26:22.032Z,4032
2018-07-07T06:27:22.714Z,4052
2018-07-07T06:28:23.433Z,4064
2018-07-07T06:29:24.152Z,4092
2018-07-07T06:30:24.875Z,4172
2018-07-07T06:31:25.594Z,4272
2018-07-07T06:32:26.314Z,4364
2018-07-07T06:33:27.035Z,4456
2018-07-07T06:34:27.756Z,4524
2018-07-07T06:35:28.493Z,4564
2018-07-07T06:36:29.215Z,4596
2018-07-07T06:37:29.936Z,4652
2018-07-07T06:38:30.656Z,4724
2018-07-07T06:39:31.376Z,4764
2018-07-07T06:40:32.100Z,4704
2018-07-07T06:41:32.819Z,4684
2018-07-07T06:42:33.556Z,4700
2018-07-07T06:43:34.287Z,4740
2018-07-07T06:44:35.007Z,4768
2018-07-07T06:45:35.729Z,4812
2018-07-07T06:46:36.451Z,4820
2018-07-07T06:47:37.171Z,4824
2018-07-07T06:48:37.896Z,4856
2018-07-07T06:49:38.613Z,4872
2018-07-07T06:50:39.347Z,4872
2018-07-07T06:51:40.084Z,4880
2018-07-07T06:52:40.816Z,4948
2018-07-07T06:53:41.578Z,5024
2018-07-07T06:54:42.285Z,5116
2018-07-07T06:55:43.006Z,5208
2018-07-07T06:56:43.726Z,5400
2018-07-07T06:57:44.460Z,5560
2018-07-07T06:58:45.181Z,5708
2018-07-07T06:59:45.907Z,5868
2018-07-07T07:00:46.626Z,5848
2018-07-07T07:01:47.349Z,5820
2018-07-07T07:02:48.087Z,5748
2018-07-07T07:03:48.806Z,5652
2018-07-07T07:04:49.526Z,5640
2018-07-07T07:05:50.264Z,5636
2018-07-07T07:06:50.999Z,5604
2018-07-07T07:07:51.721Z,5548
2018-07-07T07:08:52.443Z,5508
2018-07-07T07:09:53.166Z,5500
2018-07-07T07:10:53.891Z,5604
2018-07-07T07:11:54.633Z,5708
2018-07-07T07:12:55.339Z,5868
2018-07-07T07:13:56.078Z,6144
2018-07-07T07:14:56.815Z,6400
2018-07-07T07:15:57.535Z,6580
2018-07-07T07:16:58.257Z,6692
2018-07-07T07:17:58.979Z,6696
2018-07-07T07:18:59.699Z,6700
2018-07-07T07:20:00.435Z,6916
2018-07-07T07:21:01.142Z,7420
2018-07-07T07:22:01.866Z,7704
2018-07-07T07:23:02.602Z,7796
2018-07-07T07:24:03.328Z,8088
2018-07-07T07:25:04.064Z,8664
2018-07-07T07:26:04.867Z,9216
2018-07-07T07:27:05.526Z,9152
2018-07-07T07:28:06.248Z,9280
2018-07-07T07:29:06.973Z,10036
2018-07-07T07:30:07.712Z,10380
2018-07-07T07:31:08.436Z,10516
2018-07-07T07:32:09.160Z,10092
2018-07-07T07:33:09.891Z,9704
2018-07-07T07:34:10.612Z,9304
2018-07-07T07:35:11.341Z,8804
2018-07-07T07:36:12.077Z,8532
2018-07-07T07:37:12.803Z,8232
2018-07-07T07:38:13.543Z,8064
2018-07-07T07:39:14.268Z,8112
2018-07-07T07:40:15.008Z,8116
2018-07-07T07:41:15.736Z,8232
2018-07-07T07:42:16.460Z,8340
2018-07-07T07:43:17.280Z,8220
2018-07-07T07:44:17.932Z,8024
2018-07-07T07:45:18.655Z,7976
2018-07-07T07:46:19.383Z,7748
2018-07-07T07:47:20.117Z,7644
2018-07-07T07:48:20.846Z,7912
2018-07-07T07:49:21.570Z,8072
2018-07-07T07:50:22.296Z,8016
2018-07-07T07:51:23.027Z,7932
2018-07-07T07:52:23.769Z,7808
2018-07-07T07:53:24.496Z,7848
2018-07-07T07:54:25.238Z,8008
2018-07-07T07:55:25.964Z,8320
2018-07-07T07:56:26.693Z,8704
2018-07-07T07:57:27.420Z,9076
2018-07-07T07:58:28.151Z,9328
2018-07-07T07:59:28.876Z,9472
2018-07-07T08:00:29.619Z,9640
2018-07-07T08:01:30.349Z,9876
2018-07-07T08:02:31.079Z,10144
2018-07-07T08:03:31.823Z,10448
2018-07-07T08:04:32.556Z,10740
2018-07-07T08:05:33.288Z,11092
2018-07-07T08:06:34.018Z,11444
2018-07-07T08:07:34.750Z,11824
2018-07-07T08:08:35.487Z,12432
2018-07-07T08:09:36.221Z,13200
2018-07-07T08:10:36.954Z,14712
2018-07-07T08:11:37.694Z,21376
2018-07-07T08:12:38.431Z,44384
2018-07-07T08:13:39.165Z,63264
2018-07-07T08:14:39.896Z,62048
2018-07-07T08:15:40.629Z,63328
2018-07-07T08:16:41.362Z,66400
2018-07-07T08:17:42.097Z,65600
2018-07-07T08:18:42.829Z,67616
2018-07-07T08:19:43.562Z,69056
2018-07-07T08:20:44.307Z,66272
2018-07-07T08:21:45.042Z,68672
2018-07-07T08:22:45.775Z,67584
2018-07-07T08:23:46.517Z,68672
2018-07-07T08:24:47.250Z,69728
2018-07-07T08:25:47.996Z,70144
2018-07-07T08:26:48.728Z,70272
2018-07-07T08:27:49.461Z,73760
2018-07-07T08:28:50.196Z,73760
2018-07-07T08:29:50.944Z,70848
2018-07-07T08:30:51.678Z,74240
2018-07-07T08:31:52.410Z,74464
2018-07-07T08:32:53.143Z,75232
2018-07-07T08:33:53.877Z,78112
2018-07-07T08:34:54.610Z,77248
2018-07-07T08:35:55.356Z,79136
2018-07-07T08:36:56.090Z,76800
2018-07-07T08:37:56.846Z,76128
2018-07-07T08:38:57.579Z,78784
2018-07-07T08:39:58.314Z,77952
2018-07-07T08:40:59.053Z,78240
2018-07-07T08:41:59.889Z,74496
2018-07-07T08:43:00.536Z,77248
2018-07-07T08:44:01.272Z,74144
2018-07-07T08:45:02.021Z,77440
2018-07-07T08:46:02.763Z,79680
2018-07-07T08:47:03.502Z,82848
2018-07-07T08:48:04.244Z,85184
2018-07-07T08:49:04.986Z,87296
2018-07-07T08:50:05.731Z,89344
2018-07-07T08:51:06.500Z,84864
2018-07-07T08:52:07.308Z,34752
2018-07-07T08:53:08.077Z,45696
2018-07-07T08:54:08.892Z,66368
2018-07-07T08:55:09.708Z,75424
2018-07-07T08:56:10.475Z,76608
2018-07-07T08:57:11.242Z,40416
2018-07-07T08:58:12.038Z,74464
2018-07-07T08:59:12.804Z,79104
2018-07-07T09:00:13.602Z,84032
2018-07-07T09:01:14.373Z,85568
2018-07-07T09:02:15.193Z,86176
2018-07-07T09:03:15.921Z,87200
2018-07-07T09:04:16.693Z,80832
2018-07-07T09:05:17.467Z,78624
2018-07-07T09:06:18.259Z,87616
2018-07-07T09:07:18.999Z,86592
2018-07-07T09:08:19.741Z,80480
2018-07-07T09:09:20.480Z,83264
2018-07-07T09:10:21.223Z,81088
2018-07-07T09:11:21.963Z,87168
2018-07-07T09:12:22.705Z,88128
2018-07-07T09:13:23.462Z,78080
2018-07-07T09:14:24.205Z,82112
2018-07-07T09:15:24.946Z,82912
2018-07-07T09:16:25.690Z,86592
2018-07-07T09:17:26.432Z,87840
2018-07-07T09:18:27.184Z,90944
2018-07-07T09:19:27.938Z,92640
2018-07-07T09:20:28.680Z,90368
2018-07-07T09:21:29.441Z,90208
2018-07-07T09:22:30.181Z,90400
2018-07-07T09:23:30.933Z,88352
2018-07-07T09:24:31.699Z,90272
2018-07-07T09:25:32.436Z,88288
2018-07-07T09:26:33.174Z,89056
2018-07-07T09:27:33.908Z,90496
2018-07-07T09:28:34.652Z,89792
2018-07-07T09:29:35.402Z,89536
2018-07-07T09:30:36.153Z,88800
2018-07-07T09:31:36.894Z,86912
2018-07-07T09:32:37.637Z,90528
2018-07-07T09:33:38.388Z,87168
2018-07-07T09:34:39.129Z,85280
2018-07-07T09:35:39.872Z,86848
2018-07-07T09:36:40.611Z,88672
2018-07-07T09:37:41.352Z,85888
2018-07-07T09:38:42.141Z,91328
2018-07-07T09:39:42.848Z,92768
2018-07-07T09:40:43.590Z,86848
2018-07-07T09:41:44.334Z,90592
2018-07-07T09:42:45.088Z,88032
2018-07-07T09:43:45.828Z,90720
2018-07-07T09:44:46.576Z,90624
2018-07-07T09:45:47.313Z,90944
2018-07-07T09:46:48.055Z,91584
2018-07-07T09:47:48.797Z,93248
2018-07-07T09:48:49.540Z,98112
2018-07-07T09:49:50.296Z,93984
2018-07-07T09:50:51.036Z,96128
2018-07-07T09:51:51.777Z,96864
2018-07-07T09:52:52.522Z,97408
2018-07-07T09:53:53.255Z,95232
2018-07-07T09:54:53.998Z,90752
2018-07-07T09:55:54.735Z,92960
2018-07-07T09:56:55.484Z,89792
2018-07-07T09:57:56.222Z,92480
2018-07-07T09:58:56.974Z,88416
2018-07-07T09:59:57.713Z,93312
2018-07-07T10:00:58.465Z,92000
2018-07-07T10:01:59.272Z,85056
2018-07-07T10:02:59.954Z,86624
2018-07-07T10:04:00.705Z,92000
2018-07-07T10:05:01.446Z,100224
2018-07-07T10:06:02.195Z,97696
2018-07-07T10:07:02.935Z,96512
2018-07-07T10:08:03.675Z,96320
2018-07-07T10:09:04.413Z,94336
2018-07-07T10:10:05.153Z,95552
2018-07-07T10:11:05.907Z,94848
2018-07-07T10:12:06.647Z,88864
2018-07-07T10:13:07.385Z,95104
2018-07-07T10:14:08.127Z,93760
2018-07-07T10:15:08.878Z,89856
2018-07-07T10:16:09.614Z,95008
2018-07-07T10:17:10.354Z,96672
2018-07-07T10:18:11.092Z,93408
2018-07-07T10:19:11.829Z,96608
2018-07-07T10:20:12.570Z,93376
2018-07-07T10:21:13.318Z,96800
2018-07-07T10:22:14.072Z,96992
2018-07-07T10:23:14.810Z,93504
2018-07-07T10:24:15.563Z,94656
2018-07-07T10:25:16.318Z,86784
2018-07-07T10:26:17.091Z,86080
2018-07-07T10:27:17.794Z,84768
2018-07-07T10:28:18.548Z,88544
2018-07-07T10:29:19.288Z,82176
2018-07-07T10:30:20.026Z,83456
2018-07-07T10:31:20.765Z,90464
2018-07-07T10:32:21.544Z,86976
2018-07-07T10:33:22.243Z,94400
2018-07-07T10:34:22.982Z,90592
2018-07-07T10:35:23.721Z,95904
2018-07-07T10:36:24.458Z,100320
2018-07-07T10:37:25.216Z,89600
2018-07-07T10:38:25.951Z,89664
2018-07-07T10:39:26.688Z,93120
2018-07-07T10:40:27.426Z,90336
2018-07-07T10:41:28.165Z,90368
2018-07-07T10:42:28.905Z,93792
2018-07-07T10:43:29.642Z,92768
2018-07-07T10:44:30.381Z,89888
2018-07-07T10:45:31.137Z,94368
2018-07-07T10:46:31.857Z,89920
2018-07-07T10:47:32.696Z,90880
2018-07-07T10:48:33.343Z,94144
2018-07-07T10:49:34.083Z,98368
2018-07-07T10:50:34.827Z,101600
2018-07-07T10:51:35.574Z,98272
2018-07-07T10:52:36.311Z,96768
2018-07-07T10:53:37.052Z,96608
2018-07-07T10:54:37.791Z,98048
2018-07-07T10:55:38.609Z,100256
2018-07-07T10:56:39.278Z,102208
2018-07-07T10:57:40.020Z,102496
2018-07-07T10:58:40.798Z,99776
2018-07-07T10:59:41.497Z,102752
2018-07-07T11:00:42.237Z,97312
2018-07-07T11:01:42.980Z,94464
2018-07-07T11:02:43.714Z,95520
2018-07-07T11:03:44.456Z,96448
2018-07-07T11:04:45.206Z,92640
2018-07-07T11:05:45.946Z,88896
2018-07-07T11:06:46.703Z,94400
2018-07-07T11:07:47.440Z,90720
2018-07-07T11:08:48.182Z,41760
2018-07-07T11:09:48.920Z,19328
2018-07-07T11:10:49.658Z,18336
2018-07-07T11:11:50.457Z,101312
2018-07-07T11:12:51.131Z,13560
2018-07-07T11:13:51.883Z,94368
2018-07-07T11:14:52.632Z,96064
2018-07-07T11:15:53.368Z,95488
2018-07-07T11:16:54.107Z,97344
2018-07-07T11:17:54.846Z,94688
2018-07-07T11:18:55.582Z,96864
2018-07-07T11:19:56.384Z,98560
2018-07-07T11:20:57.061Z,95584
2018-07-07T11:21:57.800Z,102112
2018-07-07T11:22:58.540Z,99328
2018-07-07T11:23:59.278Z,95616
2018-07-07T11:25:00.028Z,100608
2018-07-07T11:26:00.768Z,97760
2018-07-07T11:27:01.522Z,94112
2018-07-07T11:28:02.257Z,94784
2018-07-07T11:29:02.996Z,95936
2018-07-07T11:30:03.737Z,93024
2018-07-07T11:31:04.476Z,96800
2018-07-07T11:32:05.216Z,99616
2018-07-07T11:33:05.958Z,101024
2018-07-07T11:34:06.696Z,93696
2018-07-07T11:35:07.433Z,77472
2018-07-07T11:36:08.172Z,96608
2018-07-07T11:37:08.909Z,89120
2018-07-07T11:38:09.664Z,92448
2018-07-07T11:39:10.403Z,100000
2018-07-07T11:40:11.143Z,98336
2018-07-07T11:41:11.882Z,95648
2018-07-07T11:42:12.644Z,100224
2018-07-07T11:43:13.363Z,102560
2018-07-07T11:44:14.100Z,94752
2018-07-07T11:45:14.843Z,103808
2018-07-07T11:46:15.579Z,101760
2018-07-07T11:47:16.319Z,90304
2018-07-07T11:48:17.060Z,91936
2018-07-07T11:49:17.798Z,99712
2018-07-07T11:50:18.564Z,90144
2018-07-07T11:51:19.276Z,92704
2018-07-07T11:52:20.030Z,89888
2018-07-07T11:53:20.770Z,95392
2018-07-07T11:54:21.521Z,96544
2018-07-07T11:55:22.261Z,91680
2018-07-07T11:56:23.001Z,94656
2018-07-07T11:57:23.754Z,92320
2018-07-07T11:58:24.509Z,80192
2018-07-07T11:59:25.247Z,89056
2018-07-07T12:00:26.000Z,89824
2018-07-07T12:01:26.739Z,85216
2018-07-07T12:02:27.478Z,88288
2018-07-07T12:03:28.218Z,83712
2018-07-07T12:04:29.031Z,94688
2018-07-07T12:05:29.696Z,92832
2018-07-07T12:06:30.437Z,93312
2018-07-07T12:07:31.176Z,97024
2018-07-07T12:08:31.983Z,98720
2018-07-07T12:09:32.663Z,96672
2018-07-07T12:10:33.415Z,99776
2018-07-07T12:11:34.190Z,91968
2018-07-07T12:12:34.898Z,96544
2018-07-07T12:13:35.637Z,92864
2018-07-07T12:14:36.376Z,93248
2018-07-07T12:15:37.129Z,96352
2018-07-07T12:16:37.865Z,94656
2018-07-07T12:17:38.604Z,67328
2018-07-07T12:18:39.354Z,85760
2018-07-07T12:19:40.106Z,93184
2018-07-07T12:20:40.847Z,88256
2018-07-07T12:21:41.592Z,91808
2018-07-07T12:22:42.322Z,94048
2018-07-07T12:23:43.062Z,77696
2018-07-07T12:24:43.865Z,80032
2018-07-07T12:25:44.546Z,88704
2018-07-07T12:26:45.298Z,93920
2018-07-07T12:27:46.048Z,94880
2018-07-07T12:28:46.789Z,96224
2018-07-07T12:29:47.543Z,94048
2018-07-07T12:30:48.283Z,97184
2018-07-07T12:31:49.033Z,95936
2018-07-07T12:32:49.772Z,90464
2018-07-07T12:33:50.523Z,87136
2018-07-07T12:34:51.262Z,92256
2018-07-07T12:35:52.001Z,88704
2018-07-07T12:36:52.743Z,81472
2018-07-07T12:37:53.516Z,81952
2018-07-07T12:38:54.257Z,80288
2018-07-07T12:39:54.994Z,75808
2018-07-07T12:40:55.757Z,67456
2018-07-07T12:41:56.498Z,74688
2018-07-07T12:42:57.236Z,78400
2018-07-07T12:43:57.973Z,80480
2018-07-07T12:44:58.727Z,79584
2018-07-07T12:45:59.602Z,81440
2018-07-07T12:47:00.203Z,85888
2018-07-07T12:48:00.940Z,83040
2018-07-07T12:49:01.679Z,84448
2018-07-07T12:50:02.418Z,83904
2018-07-07T12:51:03.187Z,84512
2018-07-07T12:52:04.056Z,78112
2018-07-07T12:53:04.671Z,76256
2018-07-07T12:54:05.408Z,75520
2018-07-07T12:55:06.145Z,92288
2018-07-07T12:56:06.888Z,87072
2018-07-07T12:57:07.623Z,91776
2018-07-07T12:58:08.360Z,84288
2018-07-07T12:59:09.098Z,88416
2018-07-07T13:00:09.837Z,87264
2018-07-07T13:01:10.636Z,84864
2018-07-07T13:02:11.313Z,80288
2018-07-07T13:03:12.051Z,80832
2018-07-07T13:04:12.787Z,77792
2018-07-07T13:05:13.541Z,75296
2018-07-07T13:06:14.282Z,72896
2018-07-07T13:07:15.022Z,53760
2018-07-07T13:08:15.760Z,28064
2018-07-07T13:09:16.500Z,98784
2018-07-07T13:10:17.250Z,81504
2018-07-07T13:11:17.987Z,80128
2018-07-07T13:12:18.724Z,99872
2018-07-07T13:13:19.463Z,96544
2018-07-07T13:14:20.216Z,84736
2018-07-07T13:15:20.952Z,85568
2018-07-07T13:16:21.690Z,84576
2018-07-07T13:17:22.427Z,80352
2018-07-07T13:18:23.165Z,88672
2018-07-07T13:19:23.904Z,84224
2018-07-07T13:20:24.655Z,84992
2018-07-07T13:21:25.392Z,81248
2018-07-07T13:22:26.130Z,86304
2018-07-07T13:23:26.869Z,84064
2018-07-07T13:24:27.606Z,80320
2018-07-07T13:25:28.344Z,81696
2018-07-07T13:26:29.192Z,81504
2018-07-07T13:27:29.817Z,80704
2018-07-07T13:28:30.554Z,84448
2018-07-07T13:29:31.292Z,80864
2018-07-07T13:30:32.032Z,77248
2018-07-07T13:31:32.769Z,80384
2018-07-07T13:32:33.507Z,76544
2018-07-07T13:33:34.247Z,80832
2018-07-07T13:34:34.985Z,78848
2018-07-07T13:35:35.720Z,69984
2018-07-07T13:36:36.459Z,81984